TimeEDT,TemperatureF,Dew PointF,Humidity,Sea Level PressureIn,VisibilityMPH,Wind Direction,Wind SpeedMPH,Gust SpeedMPH,PrecipitationIn,Events,Conditions,WindDirDegrees,DateUTC
12:51 AM,71.1,64.9,81,29.88,10.0,South,3.5,-,0.00,,Clear,170,2013-06-18 04:51:00
1:51 AM,69.1,64.9,87,29.88,9.0,Calm,Calm,-,N/A,,Clear,0,2013-06-18 05:51:00
2:51 AM,68.0,62.1,81,29.87,10.0,North,3.5,-,N/A,,Clear,10,2013-06-18 06:51:00
3:51 AM,66.9,62.1,84,29.86,10.0,Calm,Calm,-,N/A,,Clear,0,2013-06-18 07:51:00
4:51 AM,64.9,62.1,90,29.87,10.0,North,3.5,-,N/A,,Clear,350,2013-06-18 08:51:00
5:51 AM,66.0,62.1,87,29.88,10.0,Calm,Calm,-,N/A,,Clear,0,2013-06-18 09:51:00
6:51 AM,68.0,62.1,81,29.89,10.0,Calm,Calm,-,N/A,,Clear,0,2013-06-18 10:51:00
7:51 AM,71.1,63.0,75,29.89,10.0,Variable,3.5,-,N/A,,Clear,0,2013-06-18 11:51:00
8:51 AM,73.9,64.9,73,29.89,10.0,Calm,Calm,-,N/A,,Clear,0,2013-06-18 12:51:00
9:51 AM,77.0,64.0,64,29.88,10.0,East,5.8,-,N/A,,Clear,100,2013-06-18 13:51:00
10:51 AM,79.0,64.0,60,29.86,10.0,Variable,4.6,-,N/A,,Clear,0,2013-06-18 14:51:00
11:51 AM,82.0,63.0,52,29.85,10.0,Variable,3.5,-,N/A,,Partly Cloudy,0,2013-06-18 15:51:00
12:51 PM,82.9,64.9,54,29.83,10.0,SE,6.9,-,N/A,,Partly Cloudy,140,2013-06-18 16:51:00
1:51 PM,81.0,64.0,56,29.81,10.0,South,11.5,-,N/A,,Scattered Clouds,170,2013-06-18 17:51:00
2:08 PM,80.6,64.4,58,29.81,10.0,South,9.2,18.4,N/A,Thunderstorm,Partly Cloudy,180,2013-06-18 18:08:00
2:32 PM,80.6,64.4,58,29.81,10.0,South,6.9,-,N/A,,Mostly Cloudy,190,2013-06-18 18:32:00
2:51 PM,80.1,66.0,62,29.81,10.0,SSW,8.1,-,N/A,,Mostly Cloudy,200,2013-06-18 18:51:00
3:51 PM,77.0,64.9,66,29.82,10.0,South,10.4,-,N/A,,Overcast,180,2013-06-18 19:51:00
4:51 PM,73.0,68.0,84,29.83,4.0,South,9.2,-,0.01,Rain,Light Rain,190,2013-06-18 20:51:00
5:11 PM,71.6,66.2,83,29.86,0.5,Variable,4.6,-,0.03,Fog-Rain,Heavy Rain,0,2013-06-18 21:11:00
5:27 PM,69.8,60.8,73,29.85,2.5,ESE,5.8,-,0.41,Rain,Rain,120,2013-06-18 21:27:00
5:51 PM,66.0,63.0,90,29.84,2.5,SW,10.4,-,0.42,Rain,Light Rain,220,2013-06-18 21:51:00
6:51 PM,66.0,62.1,87,29.85,4.0,Calm,Calm,-,0.05,Rain,Light Rain,0,2013-06-18 22:51:00
7:51 PM,64.9,63.0,93,29.85,10.0,NNW,9.2,-,0.02,Rain,Light Rain,340,2013-06-18 23:51:00
8:51 PM,64.9,63.0,93,29.84,10.0,North,8.1,-,0.00,Rain,Light Rain,350,2013-06-19 00:51:00
9:51 PM,66.0,64.0,93,29.86,5.0,North,6.9,-,0.00,,Mostly Cloudy,350,2013-06-19 01:51:00
10:15 PM,66.2,64.4,94,29.86,5.0,NNE,5.8,-,N/A,,Mostly Cloudy,20,2013-06-19 02:15:00
10:48 PM,66.2,64.4,94,29.87,8.0,North,6.9,-,N/A,,Overcast,10,2013-06-19 02:48:00
10:51 PM,66.0,64.0,93,29.88,8.0,North,4.6,-,N/A,,Overcast,10,2013-06-19 02:51:00
11:01 PM,66.2,62.6,88,29.88,10.0,North,6.9,-,N/A,,Overcast,360,2013-06-19 03:01:00
11:03 PM,66.2,62.6,88,29.88,10.0,North,8.1,-,N/A,,Overcast,360,2013-06-19 03:03:00
11:10 PM,64.4,62.6,94,29.88,10.0,North,6.9,-,N/A,,Overcast,350,2013-06-19 03:10:00
11:51 PM,64.0,62.1,93,29.89,10.0,North,8.1,-,0.00,Rain,Light Rain,10,2013-06-19 03:51:00
11:59 PM,64.4,62.6,94,29.88,6.0,North,9.2,-,0.00,Rain,Light Rain,10,2013-06-19 03:59:00